sensor_id;sensor_type;location;lat;lon;timestamp;P1;durP1;ratioP1;P2;durP2;ratioP2
32200;SDS011;18701;45.588;5.288;2023-11-18T00:02:16;9.15;;;5.20;;
32200;SDS011;18701;45.588;5.288;2023-11-18T00:04:41;12.15;;;5.50;;
32200;SDS011;18701;45.588;5.288;2023-11-18T00:07:07;11.38;;;5.30;;
32200;SDS011;18701;45.588;5.288;2023-11-18T00:09:32;11.52;;;5.72;;
32200;SDS011;18701;45.588;5.288;2023-11-18T00:11:58;15.65;;;5.43;;
32200;SDS011;18701;45.588;5.288;2023-11-18T00:14:24;12.40;;;5.80;;
32200;SDS011;18701;45.588;5.288;2023-11-18T00:16:49;8.38;;;5.70;;
32200;SDS011;18701;45.588;5.288;2023-11-18T00:19:15;10.45;;;5.45;;
32200;SDS011;18701;45.588;5.288;2023-11-18T00:21:40;11.80;;;6.30;;
32200;SDS011;18701;45.588;5.288;2023-11-18T00:24:07;11.68;;;6.03;;
32200;SDS011;18701;45.588;5.288;2023-11-18T00:26:33;10.10;;;5.57;;
32200;SDS011;18701;45.588;5.288;2023-11-18T00:28:59;8.15;;;5.13;;
32200;SDS011;18701;45.588;5.288;2023-11-18T00:31:25;8.90;;;5.50;;
32200;SDS011;18701;45.588;5.288;2023-11-18T00:33:51;9.23;;;4.78;;
32200;SDS011;18701;45.588;5.288;2023-11-18T00:36:17;11.00;;;5.63;;
32200;SDS011;18701;45.588;5.288;2023-11-18T00:38:43;11.18;;;5.38;;
32200;SDS011;18701;45.588;5.288;2023-11-18T00:41:08;10.48;;;5.55;;
32200;SDS011;18701;45.588;5.288;2023-11-18T00:43:34;9.50;;;6.07;;
32200;SDS011;18701;45.588;5.288;2023-11-18T00:46:00;11.48;;;6.47;;
32200;SDS011;18701;45.588;5.288;2023-11-18T00:48:26;13.07;;;6.50;;
32200;SDS011;18701;45.588;5.288;2023-11-18T00:50:53;13.23;;;7.22;;
32200;SDS011;18701;45.588;5.288;2023-11-18T00:53:18;14.23;;;6.35;;
32200;SDS011;18701;45.588;5.288;2023-11-18T00:55:44;18.42;;;7.32;;
32200;SDS011;18701;45.588;5.288;2023-11-18T00:58:10;15.18;;;6.32;;
32200;SDS011;18701;45.588;5.288;2023-11-18T01:00:36;16.63;;;6.32;;
32200;SDS011;18701;45.588;5.288;2023-11-18T01:03:01;17.55;;;7.32;;
32200;SDS011;18701;45.588;5.288;2023-11-18T01:05:28;15.30;;;6.15;;
32200;SDS011;18701;45.588;5.288;2023-11-18T01:07:56;14.48;;;6.20;;
32200;SDS011;18701;45.588;5.288;2023-11-18T01:10:22;13.52;;;5.90;;
32200;SDS011;18701;45.588;5.288;2023-11-18T01:12:47;11.05;;;5.35;;
32200;SDS011;18701;45.588;5.288;2023-11-18T01:15:13;9.05;;;5.20;;
32200;SDS011;18701;45.588;5.288;2023-11-18T01:17:39;9.02;;;5.45;;
32200;SDS011;18701;45.588;5.288;2023-11-18T01:20:05;8.90;;;4.95;;
32200;SDS011;18701;45.588;5.288;2023-11-18T01:22:36;10.02;;;4.85;;
32200;SDS011;18701;45.588;5.288;2023-11-18T01:25:03;8.23;;;4.55;;
32200;SDS011;18701;45.588;5.288;2023-11-18T01:27:30;6.50;;;4.07;;
32200;SDS011;18701;45.588;5.288;2023-11-18T01:29:55;8.07;;;3.92;;
32200;SDS011;18701;45.588;5.288;2023-11-18T01:32:21;13.20;;;4.55;;
32200;SDS011;18701;45.588;5.288;2023-11-18T01:34:46;7.10;;;3.95;;
32200;SDS011;18701;45.588;5.288;2023-11-18T01:37:18;11.38;;;4.28;;
32200;SDS011;18701;45.588;5.288;2023-11-18T01:39:46;7.10;;;4.25;;
32200;SDS011;18701;45.588;5.288;2023-11-18T01:42:12;6.72;;;4.20;;
32200;SDS011;18701;45.588;5.288;2023-11-18T01:44:37;7.75;;;4.10;;
32200;SDS011;18701;45.588;5.288;2023-11-18T01:47:03;6.85;;;4.32;;
32200;SDS011;18701;45.588;5.288;2023-11-18T01:49:31;7.00;;;4.13;;
32200;SDS011;18701;45.588;5.288;2023-11-18T01:52:02;15.38;;;4.43;;
32200;SDS011;18701;45.588;5.288;2023-11-18T01:54:27;10.98;;;4.05;;
32200;SDS011;18701;45.588;5.288;2023-11-18T01:56:55;7.15;;;3.78;;
32200;SDS011;18701;45.588;5.288;2023-11-18T01:59:21;8.43;;;3.70;;
32200;SDS011;18701;45.588;5.288;2023-11-18T02:01:47;8.50;;;4.50;;
32200;SDS011;18701;45.588;5.288;2023-11-18T02:04:15;7.75;;;3.95;;
32200;SDS011;18701;45.588;5.288;2023-11-18T02:06:42;8.40;;;4.32;;
32200;SDS011;18701;45.588;5.288;2023-11-18T02:09:09;7.30;;;4.03;;
32200;SDS011;18701;45.588;5.288;2023-11-18T02:11:37;7.32;;;3.88;;
32200;SDS011;18701;45.588;5.288;2023-11-18T02:14:10;6.38;;;3.92;;
32200;SDS011;18701;45.588;5.288;2023-11-18T02:16:41;9.48;;;3.63;;
32200;SDS011;18701;45.588;5.288;2023-11-18T02:19:16;11.73;;;4.28;;
32200;SDS011;18701;45.588;5.288;2023-11-18T02:21:48;5.07;;;3.30;;
32200;SDS011;18701;45.588;5.288;2023-11-18T02:24:28;12.23;;;4.45;;
32200;SDS011;18701;45.588;5.288;2023-11-18T02:27:02;7.70;;;4.25;;
32200;SDS011;18701;45.588;5.288;2023-11-18T02:29:37;7.35;;;4.05;;
32200;SDS011;18701;45.588;5.288;2023-11-18T02:32:29;7.70;;;4.07;;
32200;SDS011;18701;45.588;5.288;2023-11-18T02:37:42;6.38;;;3.80;;
32200;SDS011;18701;45.588;5.288;2023-11-18T02:40:12;7.80;;;4.40;;
32200;SDS011;18701;45.588;5.288;2023-11-18T02:42:44;10.48;;;4.30;;
32200;SDS011;18701;45.588;5.288;2023-11-18T02:45:11;10.35;;;4.32;;
32200;SDS011;18701;45.588;5.288;2023-11-18T02:47:42;7.95;;;4.50;;
32200;SDS011;18701;45.588;5.288;2023-11-18T02:50:09;6.97;;;3.83;;
32200;SDS011;18701;45.588;5.288;2023-11-18T02:52:39;6.85;;;3.47;;
32200;SDS011;18701;45.588;5.288;2023-11-18T02:55:05;9.60;;;4.82;;
32200;SDS011;18701;45.588;5.288;2023-11-18T02:57:32;5.47;;;3.60;;
32200;SDS011;18701;45.588;5.288;2023-11-18T02:59:58;7.43;;;4.38;;
32200;SDS011;18701;45.588;5.288;2023-11-18T03:02:28;7.97;;;4.40;;
32200;SDS011;18701;45.588;5.288;2023-11-18T03:04:55;11.13;;;4.43;;
32200;SDS011;18701;45.588;5.288;2023-11-18T03:07:24;7.20;;;3.88;;
32200;SDS011;18701;45.588;5.288;2023-11-18T03:09:51;8.77;;;4.70;;
32200;SDS011;18701;45.588;5.288;2023-11-18T03:12:24;7.10;;;3.97;;
32200;SDS011;18701;45.588;5.288;2023-11-18T03:14:53;7.90;;;3.95;;
32200;SDS011;18701;45.588;5.288;2023-11-18T03:17:19;5.32;;;3.58;;
32200;SDS011;18701;45.588;5.288;2023-11-18T03:19:45;8.00;;;3.25;;
32200;SDS011;18701;45.588;5.288;2023-11-18T03:22:11;6.32;;;2.90;;
32200;SDS011;18701;45.588;5.288;2023-11-18T03:24:38;8.52;;;2.97;;
32200;SDS011;18701;45.588;5.288;2023-11-18T03:27:04;5.55;;;2.85;;
32200;SDS011;18701;45.588;5.288;2023-11-18T03:29:29;4.53;;;2.85;;
32200;SDS011;18701;45.588;5.288;2023-11-18T03:31:55;8.45;;;3.03;;
32200;SDS011;18701;45.588;5.288;2023-11-18T03:34:21;5.28;;;2.95;;
32200;SDS011;18701;45.588;5.288;2023-11-18T03:36:46;7.38;;;3.60;;
32200;SDS011;18701;45.588;5.288;2023-11-18T03:39:12;6.50;;;4.00;;
32200;SDS011;18701;45.588;5.288;2023-11-18T03:41:39;9.63;;;4.13;;
32200;SDS011;18701;45.588;5.288;2023-11-18T03:44:10;9.23;;;4.20;;
32200;SDS011;18701;45.588;5.288;2023-11-18T03:46:37;11.25;;;4.53;;
32200;SDS011;18701;45.588;5.288;2023-11-18T03:49:02;7.13;;;3.38;;
32200;SDS011;18701;45.588;5.288;2023-11-18T03:51:28;7.95;;;4.30;;
32200;SDS011;18701;45.588;5.288;2023-11-18T03:53:54;13.50;;;3.92;;
32200;SDS011;18701;45.588;5.288;2023-11-18T03:56:20;9.10;;;3.75;;
32200;SDS011;18701;45.588;5.288;2023-11-18T03:58:46;6.65;;;3.45;;
32200;SDS011;18701;45.588;5.288;2023-11-18T04:01:25;7.95;;;3.13;;
32200;SDS011;18701;45.588;5.288;2023-11-18T04:03:54;6.07;;;3.03;;
32200;SDS011;18701;45.588;5.288;2023-11-18T04:06:20;6.43;;;3.80;;
32200;SDS011;18701;45.588;5.288;2023-11-18T04:08:47;6.35;;;3.25;;
32200;SDS011;18701;45.588;5.288;2023-11-18T04:11:13;7.03;;;3.28;;
32200;SDS011;18701;45.588;5.288;2023-11-18T04:13:40;4.95;;;2.72;;
32200;SDS011;18701;45.588;5.288;2023-11-18T04:16:14;6.25;;;3.40;;
32200;SDS011;18701;45.588;5.288;2023-11-18T04:18:41;6.95;;;3.78;;
32200;SDS011;18701;45.588;5.288;2023-11-18T04:21:09;8.15;;;4.47;;
32200;SDS011;18701;45.588;5.288;2023-11-18T04:23:38;5.22;;;3.60;;
32200;SDS011;18701;45.588;5.288;2023-11-18T04:26:05;5.35;;;3.72;;
32200;SDS011;18701;45.588;5.288;2023-11-18T04:28:32;9.40;;;3.67;;
32200;SDS011;18701;45.588;5.288;2023-11-18T04:31:01;5.50;;;3.72;;
32200;SDS011;18701;45.588;5.288;2023-11-18T04:33:28;8.30;;;3.60;;
32200;SDS011;18701;45.588;5.288;2023-11-18T04:35:54;8.73;;;3.83;;
32200;SDS011;18701;45.588;5.288;2023-11-18T04:38:22;6.88;;;3.63;;
32200;SDS011;18701;45.588;5.288;2023-11-18T04:40:48;6.90;;;3.53;;
32200;SDS011;18701;45.588;5.288;2023-11-18T04:43:13;7.35;;;3.38;;
32200;SDS011;18701;45.588;5.288;2023-11-18T04:45:40;9.27;;;4.22;;
32200;SDS011;18701;45.588;5.288;2023-11-18T04:48:08;6.25;;;3.55;;
32200;SDS011;18701;45.588;5.288;2023-11-18T04:50:34;8.18;;;4.28;;
32200;SDS011;18701;45.588;5.288;2023-11-18T04:53:00;6.57;;;3.90;;
32200;SDS011;18701;45.588;5.288;2023-11-18T04:55:27;6.53;;;3.42;;
32200;SDS011;18701;45.588;5.288;2023-11-18T04:57:53;4.40;;;2.90;;
32200;SDS011;18701;45.588;5.288;2023-11-18T05:00:19;4.75;;;3.10;;
32200;SDS011;18701;45.588;5.288;2023-11-18T05:02:46;7.57;;;3.38;;
32200;SDS011;18701;45.588;5.288;2023-11-18T05:05:13;4.30;;;2.70;;
32200;SDS011;18701;45.588;5.288;2023-11-18T05:07:40;6.38;;;3.35;;
32200;SDS011;18701;45.588;5.288;2023-11-18T05:10:06;4.32;;;3.15;;
32200;SDS011;18701;45.588;5.288;2023-11-18T05:12:35;6.88;;;3.72;;
32200;SDS011;18701;45.588;5.288;2023-11-18T05:15:02;9.25;;;3.30;;
32200;SDS011;18701;45.588;5.288;2023-11-18T05:17:29;9.38;;;3.28;;
32200;SDS011;18701;45.588;5.288;2023-11-18T05:19:55;6.38;;;3.28;;
32200;SDS011;18701;45.588;5.288;2023-11-18T05:22:21;11.30;;;3.78;;
32200;SDS011;18701;45.588;5.288;2023-11-18T05:24:46;7.72;;;3.83;;
32200;SDS011;18701;45.588;5.288;2023-11-18T05:27:13;7.15;;;4.30;;
32200;SDS011;18701;45.588;5.288;2023-11-18T05:29:39;6.75;;;3.90;;
32200;SDS011;18701;45.588;5.288;2023-11-18T05:32:10;8.45;;;4.13;;
32200;SDS011;18701;45.588;5.288;2023-11-18T05:34:35;5.93;;;3.40;;
32200;SDS011;18701;45.588;5.288;2023-11-18T05:37:01;9.90;;;3.33;;
32200;SDS011;18701;45.588;5.288;2023-11-18T05:39:27;7.32;;;3.40;;
32200;SDS011;18701;45.588;5.288;2023-11-18T05:41:56;8.85;;;3.88;;
32200;SDS011;18701;45.588;5.288;2023-11-18T05:44:22;6.50;;;3.03;;
32200;SDS011;18701;45.588;5.288;2023-11-18T05:46:56;5.68;;;3.65;;
32200;SDS011;18701;45.588;5.288;2023-11-18T05:49:22;9.52;;;3.63;;
32200;SDS011;18701;45.588;5.288;2023-11-18T05:51:49;5.35;;;2.97;;
32200;SDS011;18701;45.588;5.288;2023-11-18T05:54:15;9.35;;;3.35;;
32200;SDS011;18701;45.588;5.288;2023-11-18T05:56:41;5.43;;;3.38;;
32200;SDS011;18701;45.588;5.288;2023-11-18T05:59:08;13.80;;;3.10;;
32200;SDS011;18701;45.588;5.288;2023-11-18T06:01:35;5.32;;;2.97;;
32200;SDS011;18701;45.588;5.288;2023-11-18T06:04:02;7.68;;;2.92;;
32200;SDS011;18701;45.588;5.288;2023-11-18T06:06:28;7.32;;;2.45;;
32200;SDS011;18701;45.588;5.288;2023-11-18T06:08:54;5.60;;;2.95;;
32200;SDS011;18701;45.588;5.288;2023-11-18T06:11:19;5.53;;;3.38;;
32200;SDS011;18701;45.588;5.288;2023-11-18T06:13:46;6.78;;;3.35;;
32200;SDS011;18701;45.588;5.288;2023-11-18T06:16:13;4.53;;;2.38;;
32200;SDS011;18701;45.588;5.288;2023-11-18T06:18:39;7.93;;;3.15;;
32200;SDS011;18701;45.588;5.288;2023-11-18T06:21:15;7.32;;;3.47;;
32200;SDS011;18701;45.588;5.288;2023-11-18T06:23:42;6.35;;;3.65;;
32200;SDS011;18701;45.588;5.288;2023-11-18T06:26:08;10.05;;;3.33;;
32200;SDS011;18701;45.588;5.288;2023-11-18T06:28:35;8.30;;;3.78;;
32200;SDS011;18701;45.588;5.288;2023-11-18T06:31:02;5.45;;;3.53;;
32200;SDS011;18701;45.588;5.288;2023-11-18T06:33:28;5.72;;;3.30;;
32200;SDS011;18701;45.588;5.288;2023-11-18T06:35:53;5.07;;;3.20;;
32200;SDS011;18701;45.588;5.288;2023-11-18T06:38:22;8.48;;;3.65;;
32200;SDS011;18701;45.588;5.288;2023-11-18T06:40:48;5.57;;;3.20;;
32200;SDS011;18701;45.588;5.288;2023-11-18T06:43:18;10.68;;;3.47;;
32200;SDS011;18701;45.588;5.288;2023-11-18T06:45:44;6.18;;;3.50;;
32200;SDS011;18701;45.588;5.288;2023-11-18T06:48:11;5.05;;;2.83;;
32200;SDS011;18701;45.588;5.288;2023-11-18T06:50:39;8.60;;;2.78;;
32200;SDS011;18701;45.588;5.288;2023-11-18T06:53:08;5.40;;;2.80;;
32200;SDS011;18701;45.588;5.288;2023-11-18T06:55:35;6.40;;;3.35;;
32200;SDS011;18701;45.588;5.288;2023-11-18T06:58:01;8.07;;;3.45;;
32200;SDS011;18701;45.588;5.288;2023-11-18T07:00:27;7.47;;;3.55;;
32200;SDS011;18701;45.588;5.288;2023-11-18T07:02:53;6.15;;;3.88;;
32200;SDS011;18701;45.588;5.288;2023-11-18T07:05:19;6.13;;;3.33;;
32200;SDS011;18701;45.588;5.288;2023-11-18T07:07:49;4.97;;;3.22;;
32200;SDS011;18701;45.588;5.288;2023-11-18T07:10:15;6.03;;;3.60;;
32200;SDS011;18701;45.588;5.288;2023-11-18T07:12:43;7.43;;;3.90;;
32200;SDS011;18701;45.588;5.288;2023-11-18T07:15:09;7.15;;;3.47;;
32200;SDS011;18701;45.588;5.288;2023-11-18T07:17:35;6.78;;;3.08;;
32200;SDS011;18701;45.588;5.288;2023-11-18T07:20:01;11.07;;;3.40;;
32200;SDS011;18701;45.588;5.288;2023-11-18T07:22:27;9.00;;;3.90;;
32200;SDS011;18701;45.588;5.288;2023-11-18T07:24:52;9.48;;;4.22;;
32200;SDS011;18701;45.588;5.288;2023-11-18T07:27:21;9.93;;;4.38;;
32200;SDS011;18701;45.588;5.288;2023-11-18T07:29:47;4.88;;;3.35;;
32200;SDS011;18701;45.588;5.288;2023-11-18T07:32:12;7.35;;;3.63;;
32200;SDS011;18701;45.588;5.288;2023-11-18T07:34:38;10.48;;;4.20;;
32200;SDS011;18701;45.588;5.288;2023-11-18T07:37:06;9.02;;;4.28;;
32200;SDS011;18701;45.588;5.288;2023-11-18T07:39:33;7.05;;;3.78;;
32200;SDS011;18701;45.588;5.288;2023-11-18T07:42:13;8.20;;;4.40;;
32200;SDS011;18701;45.588;5.288;2023-11-18T07:44:39;6.65;;;4.07;;
32200;SDS011;18701;45.588;5.288;2023-11-18T07:47:06;8.95;;;4.60;;
32200;SDS011;18701;45.588;5.288;2023-11-18T07:49:32;4.50;;;3.65;;
32200;SDS011;18701;45.588;5.288;2023-11-18T07:52:00;5.18;;;3.25;;
32200;SDS011;18701;45.588;5.288;2023-11-18T07:54:28;4.65;;;3.30;;
32200;SDS011;18701;45.588;5.288;2023-11-18T07:56:54;5.20;;;3.97;;
32200;SDS011;18701;45.588;5.288;2023-11-18T07:59:20;7.28;;;4.10;;
32200;SDS011;18701;45.588;5.288;2023-11-18T08:01:46;6.20;;;3.83;;
32200;SDS011;18701;45.588;5.288;2023-11-18T08:04:12;5.90;;;3.70;;
32200;SDS011;18701;45.588;5.288;2023-11-18T08:06:42;6.28;;;3.60;;
32200;SDS011;18701;45.588;5.288;2023-11-18T08:09:08;8.30;;;3.80;;
32200;SDS011;18701;45.588;5.288;2023-11-18T08:11:38;8.55;;;3.83;;
32200;SDS011;18701;45.588;5.288;2023-11-18T08:14:06;6.88;;;3.60;;
32200;SDS011;18701;45.588;5.288;2023-11-18T08:16:33;5.65;;;3.92;;
32200;SDS011;18701;45.588;5.288;2023-11-18T08:18:58;11.20;;;4.43;;
32200;SDS011;18701;45.588;5.288;2023-11-18T08:21:25;8.25;;;4.18;;
32200;SDS011;18701;45.588;5.288;2023-11-18T08:23:51;5.90;;;3.97;;
32200;SDS011;18701;45.588;5.288;2023-11-18T08:26:16;5.47;;;3.63;;
32200;SDS011;18701;45.588;5.288;2023-11-18T08:28:42;6.85;;;3.75;;
32200;SDS011;18701;45.588;5.288;2023-11-18T08:31:07;8.82;;;3.28;;
32200;SDS011;18701;45.588;5.288;2023-11-18T08:33:34;5.50;;;3.42;;
32200;SDS011;18701;45.588;5.288;2023-11-18T08:35:59;10.52;;;3.90;;
32200;SDS011;18701;45.588;5.288;2023-11-18T08:38:26;5.88;;;3.20;;
32200;SDS011;18701;45.588;5.288;2023-11-18T08:40:53;5.43;;;3.28;;
32200;SDS011;18701;45.588;5.288;2023-11-18T08:43:20;9.40;;;4.10;;
32200;SDS011;18701;45.588;5.288;2023-11-18T08:45:46;4.28;;;2.95;;
32200;SDS011;18701;45.588;5.288;2023-11-18T08:48:12;10.70;;;3.70;;
32200;SDS011;18701;45.588;5.288;2023-11-18T08:50:38;5.78;;;3.45;;
32200;SDS011;18701;45.588;5.288;2023-11-18T08:53:08;7.60;;;4.00;;
32200;SDS011;18701;45.588;5.288;2023-11-18T08:55:34;8.45;;;4.10;;
32200;SDS011;18701;45.588;5.288;2023-11-18T08:58:06;5.95;;;2.90;;
32200;SDS011;18701;45.588;5.288;2023-11-18T09:00:43;6.25;;;2.85;;
32200;SDS011;18701;45.588;5.288;2023-11-18T09:03:14;5.65;;;2.58;;
32200;SDS011;18701;45.588;5.288;2023-11-18T09:05:49;7.80;;;3.03;;
32200;SDS011;18701;45.588;5.288;2023-11-18T09:08:25;4.88;;;2.83;;
32200;SDS011;18701;45.588;5.288;2023-11-18T09:11:00;5.57;;;2.85;;
32200;SDS011;18701;45.588;5.288;2023-11-18T09:13:30;4.70;;;3.05;;
32200;SDS011;18701;45.588;5.288;2023-11-18T09:16:00;7.75;;;3.20;;
32200;SDS011;18701;45.588;5.288;2023-11-18T09:18:28;5.75;;;3.40;;
32200;SDS011;18701;45.588;5.288;2023-11-18T09:20:58;8.93;;;3.47;;
32200;SDS011;18701;45.588;5.288;2023-11-18T09:23:26;5.25;;;2.85;;
32200;SDS011;18701;45.588;5.288;2023-11-18T09:25:52;5.75;;;3.13;;
32200;SDS011;18701;45.588;5.288;2023-11-18T09:28:21;5.30;;;2.95;;
32200;SDS011;18701;45.588;5.288;2023-11-18T09:30:49;4.90;;;3.15;;
32200;SDS011;18701;45.588;5.288;2023-11-18T09:33:19;4.55;;;2.88;;
32200;SDS011;18701;45.588;5.288;2023-11-18T09:35:54;9.20;;;3.15;;
32200;SDS011;18701;45.588;5.288;2023-11-18T09:38:24;5.85;;;3.30;;
32200;SDS011;18701;45.588;5.288;2023-11-18T09:40:52;4.35;;;2.53;;
32200;SDS011;18701;45.588;5.288;2023-11-18T09:43:18;5.75;;;2.25;;
32200;SDS011;18701;45.588;5.288;2023-11-18T09:45:47;6.32;;;2.70;;
32200;SDS011;18701;45.588;5.288;2023-11-18T09:48:15;5.35;;;3.03;;
32200;SDS011;18701;45.588;5.288;2023-11-18T09:50:45;5.35;;;2.85;;
32200;SDS011;18701;45.588;5.288;2023-11-18T09:53:13;4.05;;;2.95;;
32200;SDS011;18701;45.588;5.288;2023-11-18T09:55:47;5.45;;;2.60;;
32200;SDS011;18701;45.588;5.288;2023-11-18T09:58:24;3.90;;;2.25;;
32200;SDS011;18701;45.588;5.288;2023-11-18T10:01:06;3.10;;;2.03;;
32200;SDS011;18701;45.588;5.288;2023-11-18T10:03:32;4.47;;;2.90;;
32200;SDS011;18701;45.588;5.288;2023-11-18T10:06:01;3.35;;;2.13;;
32200;SDS011;18701;45.588;5.288;2023-11-18T10:08:30;4.25;;;2.42;;
32200;SDS011;18701;45.588;5.288;2023-11-18T10:10:56;4.57;;;2.33;;
32200;SDS011;18701;45.588;5.288;2023-11-18T10:13:30;5.27;;;2.13;;
32200;SDS011;18701;45.588;5.288;2023-11-18T10:15:59;3.35;;;1.80;;
32200;SDS011;18701;45.588;5.288;2023-11-18T10:18:30;3.00;;;1.75;;
32200;SDS011;18701;45.588;5.288;2023-11-18T10:21:00;3.08;;;1.33;;
32200;SDS011;18701;45.588;5.288;2023-11-18T10:23:26;5.10;;;2.17;;
32200;SDS011;18701;45.588;5.288;2023-11-18T10:28:25;4.72;;;2.42;;
32200;SDS011;18701;45.588;5.288;2023-11-18T10:30:58;9.23;;;4.05;;
32200;SDS011;18701;45.588;5.288;2023-11-18T10:33:37;9.43;;;4.57;;
32200;SDS011;18701;45.588;5.288;2023-11-18T10:36:18;7.03;;;3.97;;
32200;SDS011;18701;45.588;5.288;2023-11-18T10:38:49;6.72;;;4.38;;
32200;SDS011;18701;45.588;5.288;2023-11-18T10:41:17;7.60;;;4.15;;
32200;SDS011;18701;45.588;5.288;2023-11-18T10:43:43;5.57;;;3.70;;
32200;SDS011;18701;45.588;5.288;2023-11-18T10:46:12;8.80;;;4.32;;
32200;SDS011;18701;45.588;5.288;2023-11-18T10:48:41;7.80;;;3.95;;
32200;SDS011;18701;45.588;5.288;2023-11-18T10:51:12;6.28;;;3.78;;
32200;SDS011;18701;45.588;5.288;2023-11-18T10:53:41;6.93;;;4.10;;
32200;SDS011;18701;45.588;5.288;2023-11-18T10:56:18;7.63;;;4.47;;
32200;SDS011;18701;45.588;5.288;2023-11-18T10:58:44;7.38;;;4.43;;
32200;SDS011;18701;45.588;5.288;2023-11-18T11:01:11;4.82;;;4.05;;
32200;SDS011;18701;45.588;5.288;2023-11-18T11:03:52;7.32;;;4.13;;
32200;SDS011;18701;45.588;5.288;2023-11-18T11:06:20;9.98;;;4.53;;
32200;SDS011;18701;45.588;5.288;2023-11-18T11:08:48;5.25;;;2.40;;
32200;SDS011;18701;45.588;5.288;2023-11-18T11:11:19;3.65;;;0.90;;
32200;SDS011;18701;45.588;5.288;2023-11-18T11:13:47;5.32;;;0.88;;
32200;SDS011;18701;45.588;5.288;2023-11-18T11:16:28;3.60;;;0.75;;
32200;SDS011;18701;45.588;5.288;2023-11-18T11:19:03;1.80;;;0.70;;
32200;SDS011;18701;45.588;5.288;2023-11-18T11:21:33;2.50;;;0.80;;
32200;SDS011;18701;45.588;5.288;2023-11-18T11:24:16;1.85;;;0.60;;
32200;SDS011;18701;45.588;5.288;2023-11-18T11:29:44;1.50;;;0.75;;
32200;SDS011;18701;45.588;5.288;2023-11-18T11:35:03;2.90;;;0.88;;
32200;SDS011;18701;45.588;5.288;2023-11-18T11:37:34;1.15;;;0.45;;
32200;SDS011;18701;45.588;5.288;2023-11-18T11:40:02;2.53;;;0.95;;
32200;SDS011;18701;45.588;5.288;2023-11-18T11:42:34;3.20;;;0.80;;
32200;SDS011;18701;45.588;5.288;2023-11-18T11:45:00;3.38;;;1.10;;
32200;SDS011;18701;45.588;5.288;2023-11-18T11:47:27;2.45;;;0.70;;
32200;SDS011;18701;45.588;5.288;2023-11-18T11:50:11;3.28;;;0.93;;
32200;SDS011;18701;45.588;5.288;2023-11-18T11:52:44;2.08;;;1.02;;
32200;SDS011;18701;45.588;5.288;2023-11-18T11:57:53;4.80;;;1.42;;
32200;SDS011;18701;45.588;5.288;2023-11-18T12:00:23;2.38;;;1.13;;
32200;SDS011;18701;45.588;5.288;2023-11-18T12:02:51;2.80;;;0.73;;
32200;SDS011;18701;45.588;5.288;2023-11-18T12:05:23;2.17;;;0.85;;
32200;SDS011;18701;45.588;5.288;2023-11-18T12:07:52;3.17;;;1.10;;
32200;SDS011;18701;45.588;5.288;2023-11-18T12:10:20;3.65;;;1.60;;
32200;SDS011;18701;45.588;5.288;2023-11-18T12:12:47;3.70;;;1.52;;
32200;SDS011;18701;45.588;5.288;2023-11-18T12:15:13;3.90;;;1.73;;
32200;SDS011;18701;45.588;5.288;2023-11-18T12:20:37;4.72;;;1.58;;
32200;SDS011;18701;45.588;5.288;2023-11-18T12:23:12;2.85;;;1.33;;
32200;SDS011;18701;45.588;5.288;2023-11-18T12:25:48;3.45;;;1.20;;
32200;SDS011;18701;45.588;5.288;2023-11-18T12:28:19;3.65;;;1.17;;
32200;SDS011;18701;45.588;5.288;2023-11-18T12:30:46;7.50;;;1.92;;
32200;SDS011;18701;45.588;5.288;2023-11-18T12:33:22;7.90;;;1.40;;
32200;SDS011;18701;45.588;5.288;2023-11-18T12:41:04;2.17;;;0.60;;
32200;SDS011;18701;45.588;5.288;2023-11-18T12:49:14;1.92;;;0.80;;
32200;SDS011;18701;45.588;5.288;2023-11-18T12:51:44;1.95;;;0.80;;
32200;SDS011;18701;45.588;5.288;2023-11-18T12:54:10;2.95;;;0.70;;
32200;SDS011;18701;45.588;5.288;2023-11-18T12:56:41;7.20;;;0.95;;
32200;SDS011;18701;45.588;5.288;2023-11-18T12:59:13;1.85;;;0.75;;
32200;SDS011;18701;45.588;5.288;2023-11-18T13:01:42;1.95;;;0.73;;
32200;SDS011;18701;45.588;5.288;2023-11-18T13:04:17;1.65;;;0.75;;
32200;SDS011;18701;45.588;5.288;2023-11-18T13:06:44;1.75;;;0.80;;
32200;SDS011;18701;45.588;5.288;2023-11-18T13:09:11;2.83;;;1.40;;
32200;SDS011;18701;45.588;5.288;2023-11-18T13:11:49;1.35;;;0.60;;
32200;SDS011;18701;45.588;5.288;2023-11-18T13:14:25;0.85;;;0.40;;
32200;SDS011;18701;45.588;5.288;2023-11-18T13:16:53;2.00;;;0.50;;
32200;SDS011;18701;45.588;5.288;2023-11-18T13:21:59;1.20;;;0.30;;
32200;SDS011;18701;45.588;5.288;2023-11-18T13:24:29;0.88;;;0.40;;
32200;SDS011;18701;45.588;5.288;2023-11-18T13:26:59;1.52;;;0.52;;
32200;SDS011;18701;45.588;5.288;2023-11-18T13:29:29;0.80;;;0.38;;
32200;SDS011;18701;45.588;5.288;2023-11-18T13:31:56;2.58;;;0.55;;
32200;SDS011;18701;45.588;5.288;2023-11-18T13:34:23;2.55;;;1.00;;
32200;SDS011;18701;45.588;5.288;2023-11-18T13:36:49;2.13;;;1.08;;
32200;SDS011;18701;45.588;5.288;2023-11-18T13:39:19;1.88;;;0.85;;
32200;SDS011;18701;45.588;5.288;2023-11-18T13:41:49;3.08;;;1.02;;
32200;SDS011;18701;45.588;5.288;2023-11-18T13:44:31;1.77;;;0.90;;
32200;SDS011;18701;45.588;5.288;2023-11-18T13:47:01;1.67;;;0.88;;
32200;SDS011;18701;45.588;5.288;2023-11-18T13:49:27;5.20;;;1.08;;
32200;SDS011;18701;45.588;5.288;2023-11-18T13:51:54;2.17;;;0.82;;
32200;SDS011;18701;45.588;5.288;2023-11-18T13:54:21;5.22;;;1.42;;
32200;SDS011;18701;45.588;5.288;2023-11-18T13:56:47;2.08;;;1.10;;
32200;SDS011;18701;45.588;5.288;2023-11-18T13:59:17;3.72;;;1.33;;
32200;SDS011;18701;45.588;5.288;2023-11-18T14:01:44;3.47;;;1.27;;
32200;SDS011;18701;45.588;5.288;2023-11-18T14:04:10;2.97;;;1.13;;
32200;SDS011;18701;45.588;5.288;2023-11-18T14:06:35;2.30;;;1.27;;
32200;SDS011;18701;45.588;5.288;2023-11-18T14:09:02;2.60;;;1.52;;
32200;SDS011;18701;45.588;5.288;2023-11-18T14:11:29;3.88;;;1.80;;
32200;SDS011;18701;45.588;5.288;2023-11-18T14:13:55;3.65;;;1.60;;
32200;SDS011;18701;45.588;5.288;2023-11-18T14:16:21;6.20;;;1.70;;
32200;SDS011;18701;45.588;5.288;2023-11-18T14:18:48;9.35;;;2.10;;
32200;SDS011;18701;45.588;5.288;2023-11-18T14:21:14;3.45;;;1.73;;
32200;SDS011;18701;45.588;5.288;2023-11-18T14:23:40;7.55;;;2.38;;
32200;SDS011;18701;45.588;5.288;2023-11-18T14:26:06;3.45;;;1.92;;
32200;SDS011;18701;45.588;5.288;2023-11-18T14:28:35;4.45;;;1.10;;
32200;SDS011;18701;45.588;5.288;2023-11-18T14:31:02;4.30;;;1.35;;
32200;SDS011;18701;45.588;5.288;2023-11-18T14:33:32;3.47;;;1.50;;
32200;SDS011;18701;45.588;5.288;2023-11-18T14:35:59;2.88;;;1.40;;
32200;SDS011;18701;45.588;5.288;2023-11-18T14:38:26;3.38;;;1.33;;
32200;SDS011;18701;45.588;5.288;2023-11-18T14:40:52;3.28;;;1.40;;
32200;SDS011;18701;45.588;5.288;2023-11-18T14:43:18;4.88;;;1.67;;
32200;SDS011;18701;45.588;5.288;2023-11-18T14:45:44;5.68;;;1.13;;
32200;SDS011;18701;45.588;5.288;2023-11-18T14:48:10;4.07;;;1.60;;
32200;SDS011;18701;45.588;5.288;2023-11-18T14:50:36;4.32;;;1.98;;
32200;SDS011;18701;45.588;5.288;2023-11-18T14:53:03;6.53;;;1.70;;
32200;SDS011;18701;45.588;5.288;2023-11-18T14:55:30;3.47;;;1.77;;
32200;SDS011;18701;45.588;5.288;2023-11-18T14:57:57;3.45;;;2.28;;
32200;SDS011;18701;45.588;5.288;2023-11-18T15:00:23;3.80;;;2.03;;
32200;SDS011;18701;45.588;5.288;2023-11-18T15:02:52;5.57;;;2.55;;
32200;SDS011;18701;45.588;5.288;2023-11-18T15:05:20;5.28;;;2.75;;
32200;SDS011;18701;45.588;5.288;2023-11-18T15:10:23;3.60;;;1.85;;
32200;SDS011;18701;45.588;5.288;2023-11-18T15:12:56;3.92;;;1.90;;
32200;SDS011;18701;45.588;5.288;2023-11-18T15:15:27;5.00;;;1.75;;
32200;SDS011;18701;45.588;5.288;2023-11-18T15:17:57;6.60;;;2.00;;
32200;SDS011;18701;45.588;5.288;2023-11-18T15:20:24;5.15;;;1.55;;
32200;SDS011;18701;45.588;5.288;2023-11-18T15:22:50;6.50;;;1.85;;
32200;SDS011;18701;45.588;5.288;2023-11-18T15:25:16;4.80;;;2.20;;